Time;durP1;ratioP1;P1;durP2;ratioP2;P2;SDS_P1;SDS_P2;PMS_P1;PMS_P2;Temp;Humidity;BMP_temperature;BMP_pressure;BME280_temperature;BME280_humidity;BME280_pressure;Samples;Min_cycle;Max_cycle;Signal;HPM_P1;HPM_P2
2021/05/24 00:00:27;;;;;;;2.72;0.80;;;12.20;94.30;;;;;;5061244;28;20105;-72
2021/05/24 00:02:53;;;;;;;4.53;1.00;;;12.20;94.20;;;;;;5062173;28;20036;-72
2021/05/24 00:05:25;;;;;;;3.53;0.88;;;12.20;94.20;;;;;;5060106;28;20039;-72
2021/05/24 00:07:51;;;;;;;1.58;0.60;;;12.30;93.60;;;;;;5062436;28;20046;-72
2021/05/24 00:10:29;;;;;;;5.05;1.10;;;12.30;93.80;;;;;;5060185;28;20170;-73
2021/05/24 00:13:00;;;;;;;5.00;0.70;;;12.20;94.20;;;;;;5060234;28;20115;-72
2021/05/24 00:15:35;;;;;;;4.10;1.52;;;12.10;94.30;;;;;;5062173;28;20029;-72
2021/05/24 00:18:02;;;;;;;4.63;0.98;;;12.10;94.40;;;;;;5063201;28;20060;-72
2021/05/24 00:20:31;;;;;;;3.28;0.75;;;12.10;94.50;;;;;;5057515;28;20036;-72
2021/05/24 00:22:57;;;;;;;3.25;1.00;;;12.20;94.50;;;;;;5058671;28;20044;-72
2021/05/24 00:25:23;;;;;;;1.42;0.70;;;12.30;94.10;;;;;;5060634;28;20040;-72
2021/05/24 00:27:49;;;;;;;5.05;1.35;;;12.30;94.30;;;;;;5056787;28;20041;-72
2021/05/24 00:30:16;;;;;;;5.28;1.33;;;12.30;94.50;;;;;;5060488;28;20161;-73
2021/05/24 00:32:42;;;;;;;4.43;0.73;;;12.20;95.20;;;;;;5058815;28;20453;-73
2021/05/24 00:35:10;;;;;;;3.80;1.00;;;12.20;95.20;;;;;;5060595;28;20063;-73
2021/05/24 00:37:36;;;;;;;4.28;0.85;;;12.10;95.90;;;;;;5063262;28;20029;-73
2021/05/24 00:40:04;;;;;;;4.32;0.90;;;12.10;96.00;;;;;;5062052;28;20428;-73
2021/05/24 00:42:30;;;;;;;4.20;0.90;;;12.00;96.40;;;;;;5062641;28;20037;-72
2021/05/24 00:44:56;;;;;;;2.92;0.88;;;12.00;96.80;;;;;;5061731;28;20033;-72
2021/05/24 00:47:21;;;;;;;2.45;0.95;;;11.90;97.20;;;;;;5061241;28;20044;-72
2021/05/24 00:49:47;;;;;;;3.15;1.00;;;12.00;97.50;;;;;;5063018;28;20040;-72
2021/05/24 00:52:14;;;;;;;4.18;1.20;;;11.80;97.70;;;;;;5057015;28;20037;-71
2021/05/24 00:54:40;;;;;;;2.95;1.08;;;11.70;98.10;;;;;;5056769;28;20053;-71
2021/05/24 00:57:07;;;;;;;2.45;1.20;;;11.70;98.60;;;;;;5060236;28;20186;-72
2021/05/24 00:59:33;;;;;;;4.30;1.10;;;11.50;99.00;;;;;;5057239;28;20056;-72
2021/05/24 01:01:59;;;;;;;3.20;1.40;;;11.50;99.10;;;;;;5061343;28;20128;-72
2021/05/24 01:04:25;;;;;;;6.18;1.50;;;11.40;99.30;;;;;;5058752;28;20561;-72
2021/05/24 01:06:53;;;;;;;5.05;1.00;;;11.40;99.50;;;;;;5056599;28;20873;-72
2021/05/24 01:09:19;;;;;;;4.30;0.98;;;11.40;99.50;;;;;;5059573;28;20402;-72
2021/05/24 01:11:48;;;;;;;3.15;1.00;;;11.30;99.50;;;;;;5088428;27;20056;-72
2021/05/24 01:14:14;;;;;;;2.97;1.33;;;11.30;99.80;;;;;;5057060;28;21123;-72
2021/05/24 01:16:43;;;;;;;2.83;1.08;;;11.20;99.70;;;;;;5056586;28;20049;-72
2021/05/24 01:19:09;;;;;;;3.67;1.35;;;11.20;99.90;;;;;;5056671;28;20037;-72
2021/05/24 01:21:35;;;;;;;3.78;1.30;;;11.20;99.80;;;;;;5086930;28;22650;-72
2021/05/24 01:24:01;;;;;;;7.03;1.67;;;11.10;99.90;;;;;;5056157;28;20119;-72
2021/05/24 01:26:27;;;;;;;4.30;1.08;;;11.10;99.90;;;;;;5055693;28;20060;-72
2021/05/24 01:28:52;;;;;;;4.18;1.52;;;11.10;99.90;;;;;;5055199;28;20139;-72
2021/05/24 01:31:18;;;;;;;3.03;1.00;;;11.10;99.90;;;;;;5056694;28;20581;-72
2021/05/24 01:33:44;;;;;;;4.35;1.20;;;11.10;99.90;;;;;;5056099;28;20049;-72
2021/05/24 01:36:11;;;;;;;3.47;1.20;;;11.10;99.90;;;;;;5058045;28;20048;-72
2021/05/24 01:38:42;;;;;;;7.03;1.15;;;11.10;99.90;;;;;;5057104;28;20041;-72
2021/05/24 01:41:10;;;;;;;5.35;1.00;;;11.10;99.90;;;;;;5055771;28;20036;-72
2021/05/24 01:43:36;;;;;;;4.30;1.42;;;11.20;99.90;;;;;;5057032;28;20078;-72
2021/05/24 01:46:03;;;;;;;2.60;0.75;;;11.20;99.50;;;;;;5059461;28;20044;-72
2021/05/24 01:48:30;;;;;;;5.90;1.40;;;11.30;99.30;;;;;;5085632;27;20147;-72
2021/05/24 01:50:56;;;;;;;3.53;1.13;;;11.40;98.50;;;;;;5055567;28;20039;-72
2021/05/24 01:53:23;;;;;;;2.80;1.00;;;11.40;98.50;;;;;;5056568;28;20393;-72
2021/05/24 01:55:48;;;;;;;4.50;1.23;;;11.50;98.40;;;;;;5055024;28;20037;-72
2021/05/24 01:58:14;;;;;;;6.78;1.92;;;11.50;98.50;;;;;;5056227;28;20512;-72
2021/05/24 02:00:40;;;;;;;4.72;0.90;;;11.40;98.60;;;;;;5057250;28;20514;-72
2021/05/24 02:03:07;;;;;;;5.55;1.25;;;11.40;98.80;;;;;;5072004;28;20041;-72
2021/05/24 02:05:35;;;;;;;6.47;1.30;;;11.40;98.90;;;;;;5057368;28;20033;-72
2021/05/24 02:08:01;;;;;;;3.40;1.15;;;11.40;98.80;;;;;;5054720;28;20436;-72
2021/05/24 02:10:29;;;;;;;4.80;1.08;;;11.40;99.00;;;;;;5054959;28;20036;-72
2021/05/24 02:12:56;;;;;;;6.55;1.38;;;11.50;98.60;;;;;;5058650;28;20040;-72
2021/05/24 02:15:29;;;;;;;6.03;1.42;;;11.50;98.80;;;;;;5058381;28;20506;-71
2021/05/24 02:17:58;;;;;;;6.07;1.50;;;11.40;98.90;;;;;;5058240;28;20051;-71
2021/05/24 02:20:25;;;;;;;6.43;1.30;;;11.40;99.40;;;;;;5056824;28;20036;-71
2021/05/24 02:22:56;;;;;;;4.18;1.10;;;11.30;99.80;;;;;;5054907;28;20040;-71
2021/05/24 02:25:23;;;;;;;4.32;1.38;;;11.30;99.80;;;;;;5059496;28;20044;-71
2021/05/24 02:27:49;;;;;;;6.68;2.42;;;11.30;99.80;;;;;;5062694;28;20105;-72
2021/05/24 02:30:17;;;;;;;6.50;2.28;;;11.30;99.90;;;;;;5059691;28;20033;-71
2021/05/24 02:32:43;;;;;;;2.97;1.13;;;11.20;99.90;;;;;;5062426;28;20044;-71
2021/05/24 02:35:12;;;;;;;6.03;1.52;;;11.30;99.90;;;;;;5063206;28;20036;-71
2021/05/24 02:37:39;;;;;;;3.35;1.40;;;11.20;99.90;;;;;;5063546;28;20125;-72
2021/05/24 02:40:07;;;;;;;4.47;1.60;;;11.10;99.90;;;;;;5061053;28;20040;-71
2021/05/24 02:42:34;;;;;;;4.03;1.58;;;11.10;99.90;;;;;;5069406;28;20075;-71
2021/05/24 02:45:00;;;;;;;5.82;1.77;;;11.10;99.90;;;;;;5059834;28;20119;-71
2021/05/24 02:47:26;;;;;;;3.97;1.63;;;11.00;99.90;;;;;;5065105;28;20522;-71
2021/05/24 02:49:52;;;;;;;6.53;1.48;;;11.00;99.90;;;;;;5060413;28;20036;-71
2021/05/24 02:52:18;;;;;;;3.70;1.67;;;11.00;99.90;;;;;;5089409;28;20123;-71
2021/05/24 02:54:44;;;;;;;2.53;1.55;;;10.90;99.90;;;;;;5058462;28;20045;-71
2021/05/24 02:57:09;;;;;;;4.53;1.00;;;10.90;99.90;;;;;;5058011;28;20051;-71
2021/05/24 02:59:35;;;;;;;3.58;1.30;;;10.90;99.90;;;;;;5059800;28;20116;-71
2021/05/24 03:02:02;;;;;;;3.15;1.45;;;10.90;99.90;;;;;;5058718;28;20131;-71
2021/05/24 03:04:30;;;;;;;3.42;1.35;;;10.90;99.90;;;;;;5058487;28;20104;-71
2021/05/24 03:06:56;;;;;;;3.75;1.55;;;10.90;99.90;;;;;;5057952;28;20047;-71
2021/05/24 03:09:22;;;;;;;4.22;1.17;;;10.90;99.90;;;;;;5057294;28;20048;-72
2021/05/24 03:11:48;;;;;;;3.80;1.38;;;10.90;99.90;;;;;;5059611;28;20106;-72
2021/05/24 03:14:14;;;;;;;6.30;1.40;;;10.90;99.90;;;;;;5058307;28;20045;-71
2021/05/24 03:16:39;;;;;;;3.83;1.02;;;11.00;99.90;;;;;;5061656;28;20068;-71
2021/05/24 03:19:05;;;;;;;4.05;1.63;;;10.90;99.90;;;;;;5058236;28;20033;-71
2021/05/24 03:21:31;;;;;;;4.57;1.55;;;10.90;99.90;;;;;;5058357;28;20045;-71
2021/05/24 03:23:57;;;;;;;4.28;1.10;;;10.90;99.90;;;;;;5059738;28;20049;-72
2021/05/24 03:26:23;;;;;;;4.75;1.35;;;10.90;99.90;;;;;;5058289;28;20388;-72
2021/05/24 03:28:48;;;;;;;3.13;1.08;;;10.90;99.90;;;;;;5062699;28;20067;-72
2021/05/24 03:31:15;;;;;;;3.38;1.00;;;10.90;99.90;;;;;;5058485;28;20045;-71
2021/05/24 03:33:41;;;;;;;4.15;1.00;;;10.90;99.90;;;;;;5054503;28;20466;-72
2021/05/24 03:36:08;;;;;;;8.32;1.00;;;10.90;99.90;;;;;;5057582;28;20094;-72
2021/05/24 03:38:35;;;;;;;9.30;2.30;;;10.90;99.90;;;;;;5058973;28;20060;-71
2021/05/24 03:41:02;;;;;;;3.03;0.70;;;10.90;99.90;;;;;;5058654;28;20038;-71
2021/05/24 03:43:28;;;;;;;2.05;0.85;;;11.00;99.90;;;;;;5055183;28;20041;-71
2021/05/24 03:45:55;;;;;;;9.38;1.48;;;11.10;99.90;;;;;;5061252;28;20540;-72
2021/05/24 03:48:20;;;;;;;3.78;0.85;;;11.10;99.90;;;;;;5061203;28;20123;-72
2021/05/24 03:50:46;;;;;;;2.70;0.65;;;10.90;99.90;;;;;;5060454;28;20535;-72
2021/05/24 03:53:12;;;;;;;1.40;0.55;;;11.10;99.90;;;;;;5059140;28;20050;-72
2021/05/24 03:55:38;;;;;;;2.67;0.82;;;11.20;99.90;;;;;;5057167;28;20112;-72
2021/05/24 03:58:05;;;;;;;2.03;0.73;;;11.20;99.50;;;;;;5060881;28;20569;-72
2021/05/24 04:00:30;;;;;;;2.72;0.50;;;11.30;99.40;;;;;;5060244;28;20073;-71
2021/05/24 04:02:56;;;;;;;4.38;0.57;;;11.40;99.00;;;;;;5058661;28;20075;-72
2021/05/24 04:05:28;;;;;;;3.03;0.52;;;11.50;98.60;;;;;;5062304;28;20066;-72
2021/05/24 04:07:55;;;;;;;4.40;0.70;;;11.40;98.70;;;;;;5058186;28;20045;-72
2021/05/24 04:10:24;;;;;;;5.30;0.55;;;11.50;98.70;;;;;;5060472;28;20028;-72
2021/05/24 04:12:50;;;;;;;3.15;0.60;;;11.50;98.40;;;;;;5060136;28;20041;-72
2021/05/24 04:15:17;;;;;;;3.78;0.73;;;11.60;98.10;;;;;;5063152;28;20036;-71
2021/05/24 04:17:44;;;;;;;1.63;0.50;;;11.60;98.00;;;;;;5055756;28;20052;-72
2021/05/24 04:20:11;;;;;;;4.18;0.60;;;11.60;98.20;;;;;;5056985;28;20029;-71
2021/05/24 04:22:40;;;;;;;6.03;0.52;;;11.60;98.00;;;;;;5056009;28;20561;-72
2021/05/24 04:25:08;;;;;;;4.30;0.93;;;11.60;98.20;;;;;;5058788;28;20041;-72
2021/05/24 04:27:33;;;;;;;1.08;0.40;;;11.60;98.10;;;;;;5063758;28;20094;-72
2021/05/24 04:29:59;;;;;;;4.15;0.50;;;11.70;98.10;;;;;;5065782;28;20040;-72
2021/05/24 04:32:25;;;;;;;6.05;0.77;;;11.70;97.90;;;;;;5060663;28;20052;-72
2021/05/24 04:34:51;;;;;;;4.68;0.90;;;11.70;98.20;;;;;;5063892;28;20036;-72
2021/05/24 04:37:17;;;;;;;4.07;0.80;;;11.80;98.20;;;;;;5060038;28;20491;-72
2021/05/24 04:39:45;;;;;;;8.35;1.80;;;11.80;97.90;;;;;;5060991;28;20041;-72
2021/05/24 04:42:11;;;;;;;5.57;0.70;;;11.90;97.60;;;;;;5060984;28;20097;-72
2021/05/24 04:44:37;;;;;;;3.30;1.30;;;11.80;97.80;;;;;;5060419;28;20395;-71
2021/05/24 04:47:03;;;;;;;4.57;0.90;;;11.80;98.00;;;;;;5063385;28;20041;-71
2021/05/24 04:49:31;;;;;;;4.75;0.57;;;11.90;98.00;;;;;;5063203;28;20036;-72
2021/05/24 04:51:58;;;;;;;2.55;0.50;;;11.80;98.10;;;;;;5062133;28;20048;-72
2021/05/24 04:54:24;;;;;;;2.03;0.63;;;12.00;97.60;;;;;;5065104;28;20040;-72
2021/05/24 04:56:49;;;;;;;5.00;1.02;;;12.00;98.10;;;;;;5062429;28;20036;-72
2021/05/24 04:59:15;;;;;;;5.50;1.27;;;11.90;97.90;;;;;;5061145;28;20123;-72
2021/05/24 05:01:41;;;;;;;4.45;0.73;;;11.90;98.20;;;;;;5061288;28;20052;-72
2021/05/24 05:04:07;;;;;;;4.32;0.77;;;11.90;98.00;;;;;;5061492;28;20037;-72
2021/05/24 05:06:33;;;;;;;4.20;0.65;;;11.90;98.00;;;;;;5063354;28;20047;-72
2021/05/24 05:08:58;;;;;;;4.35;1.10;;;11.90;98.20;;;;;;5061907;28;20411;-71
2021/05/24 05:11:24;;;;;;;3.10;0.60;;;12.00;98.00;;;;;;5054686;28;20044;-72
2021/05/24 05:13:50;;;;;;;6.80;0.75;;;11.90;98.20;;;;;;5058892;28;20459;-72
2021/05/24 05:16:16;;;;;;;7.95;0.98;;;12.00;98.10;;;;;;5059070;28;20063;-72
2021/05/24 05:18:42;;;;;;;4.22;0.52;;;12.00;98.30;;;;;;5057886;28;20041;-72
2021/05/24 05:21:08;;;;;;;5.28;0.90;;;12.00;98.10;;;;;;5056255;28;20045;-72
2021/05/24 05:23:34;;;;;;;4.25;0.77;;;12.00;98.20;;;;;;5057282;28;20112;-72
2021/05/24 05:25:59;;;;;;;5.65;0.90;;;12.00;98.30;;;;;;5057711;28;20056;-72
2021/05/24 05:28:26;;;;;;;6.00;1.00;;;12.10;98.30;;;;;;5055866;28;20055;-72
2021/05/24 05:30:52;;;;;;;7.03;1.27;;;12.20;97.60;;;;;;5055681;28;20040;-72
2021/05/24 05:33:18;;;;;;;3.92;1.00;;;12.20;97.80;;;;;;5057454;28;20040;-72
2021/05/24 05:35:47;;;;;;;7.50;0.90;;;12.30;97.40;;;;;;5057908;28;20502;-72
2021/05/24 05:38:15;;;;;;;3.70;0.50;;;12.30;97.60;;;;;;5057047;28;20091;-72
2021/05/24 05:40:43;;;;;;;4.22;0.73;;;12.30;97.50;;;;;;5058087;28;20041;-72
2021/05/24 05:43:08;;;;;;;2.88;0.80;;;12.40;97.00;;;;;;5054939;28;20033;-72
2021/05/24 05:45:34;;;;;;;3.10;0.70;;;12.50;97.00;;;;;;5055848;28;20055;-72
2021/05/24 05:48:01;;;;;;;6.40;1.33;;;12.50;97.10;;;;;;5056118;28;20568;-72
2021/05/24 05:50:27;;;;;;;4.85;0.82;;;12.50;97.20;;;;;;5056665;28;20421;-72
2021/05/24 05:52:53;;;;;;;1.80;0.40;;;12.10;97.50;;;;;;5057735;28;20111;-72
2021/05/24 05:55:19;;;;;;;3.35;0.55;;;12.40;97.30;;;;;;5058138;28;20128;-72
2021/05/24 05:57:44;;;;;;;2.63;0.60;;;12.50;97.40;;;;;;5057025;28;20049;-72
2021/05/24 06:00:11;;;;;;;3.00;0.65;;;12.50;97.40;;;;;;5058190;28;20479;-72
2021/05/24 06:02:36;;;;;;;2.55;0.70;;;12.60;97.30;;;;;;5055542;28;21831;-72
2021/05/24 06:05:02;;;;;;;4.63;0.90;;;12.60;97.20;;;;;;5058424;28;20040;-72
2021/05/24 06:07:28;;;;;;;2.35;0.47;;;12.60;97.20;;;;;;5055279;28;20032;-72
2021/05/24 06:09:54;;;;;;;2.70;0.68;;;12.70;97.00;;;;;;5056831;28;20482;-72
2021/05/24 06:12:19;;;;;;;2.90;0.60;;;12.80;96.90;;;;;;5056398;28;20044;-72
2021/05/24 06:14:45;;;;;;;2.25;0.80;;;12.80;96.50;;;;;;5054836;28;20043;-72
2021/05/24 06:17:11;;;;;;;3.25;0.65;;;13.00;96.30;;;;;;5059485;28;20039;-72
2021/05/24 06:19:36;;;;;;;3.22;1.63;;;12.90;96.60;;;;;;5054416;28;20041;-72
2021/05/24 06:22:02;;;;;;;4.30;1.13;;;13.10;96.30;;;;;;5057814;28;20101;-72
2021/05/24 06:24:28;;;;;;;4.70;0.80;;;13.10;96.40;;;;;;5055111;28;20395;-72
2021/05/24 06:26:54;;;;;;;4.43;0.40;;;13.20;96.40;;;;;;5055354;28;20179;-72
2021/05/24 06:29:24;;;;;;;3.25;0.70;;;13.20;96.30;;;;;;5054614;28;20541;-72
2021/05/24 06:31:52;;;;;;;7.15;0.77;;;13.20;96.20;;;;;;5058869;28;20043;-72
2021/05/24 06:34:18;;;;;;;5.80;0.82;;;13.30;96.30;;;;;;5059250;28;20040;-74
2021/05/24 06:36:44;;;;;;;4.88;0.77;;;13.30;96.00;;;;;;5058719;28;20036;-74
2021/05/24 06:39:12;;;;;;;7.15;0.93;;;13.40;95.60;;;;;;5062926;28;20045;-74
2021/05/24 06:41:38;;;;;;;2.72;0.55;;;13.40;95.90;;;;;;5062284;28;20045;-74
2021/05/24 06:44:04;;;;;;;3.15;0.60;;;13.50;96.10;;;;;;5058986;28;20538;-74
2021/05/24 06:46:30;;;;;;;2.58;0.40;;;13.50;95.90;;;;;;5058899;28;20035;-74
2021/05/24 06:48:56;;;;;;;2.13;0.50;;;13.60;95.70;;;;;;5057314;28;20037;-74
2021/05/24 06:51:22;;;;;;;3.05;0.40;;;13.70;95.70;;;;;;5058141;28;20410;-74
2021/05/24 06:53:48;;;;;;;4.95;0.70;;;13.70;95.70;;;;;;5062159;28;20059;-74
2021/05/24 06:56:14;;;;;;;5.38;0.80;;;13.80;95.30;;;;;;5057711;28;20082;-74
2021/05/24 06:58:39;;;;;;;4.60;0.82;;;13.80;95.10;;;;;;5055202;28;20048;-74
2021/05/24 07:01:05;;;;;;;2.17;0.60;;;13.90;95.10;;;;;;5053728;28;20045;-74
2021/05/24 07:03:31;;;;;;;5.88;0.60;;;14.10;94.70;;;;;;5051144;28;20040;-74
2021/05/24 07:05:57;;;;;;;2.47;0.45;;;14.10;94.50;;;;;;5058191;28;20032;-74
2021/05/24 07:08:23;;;;;;;7.40;0.63;;;14.10;94.80;;;;;;5056067;28;20625;-74
2021/05/24 07:10:49;;;;;;;7.63;0.50;;;14.30;94.90;;;;;;5058687;28;20044;-74
2021/05/24 07:13:15;;;;;;;2.88;1.00;;;14.40;94.70;;;;;;5056259;28;20040;-74
2021/05/24 07:15:41;;;;;;;3.70;0.47;;;14.50;94.40;;;;;;5054864;28;20090;-75
2021/05/24 07:18:07;;;;;;;1.67;0.50;;;14.60;94.70;;;;;;5055596;28;20044;-75
2021/05/24 07:20:33;;;;;;;2.65;0.38;;;14.70;94.40;;;;;;5054131;28;20025;-75
2021/05/24 07:22:58;;;;;;;4.32;0.52;;;14.80;93.50;;;;;;5056533;28;20123;-75
2021/05/24 07:25:24;;;;;;;2.60;0.50;;;15.00;93.50;;;;;;5055025;28;20052;-74
2021/05/24 07:27:50;;;;;;;3.30;0.70;;;15.00;93.40;;;;;;5054421;28;20505;-75
2021/05/24 07:30:17;;;;;;;2.70;0.40;;;14.90;93.30;;;;;;5053287;28;20112;-75
2021/05/24 07:32:43;;;;;;;1.52;0.50;;;15.00;93.00;;;;;;5055064;28;21405;-75
2021/05/24 07:35:09;;;;;;;1.48;0.55;;;15.00;92.80;;;;;;5056924;28;20105;-75
2021/05/24 07:37:35;;;;;;;1.60;0.55;;;15.00;93.00;;;;;;5055833;28;20041;-75
2021/05/24 07:40:03;;;;;;;2.25;0.40;;;15.00;93.60;;;;;;5054479;28;20076;-75
2021/05/24 07:42:28;;;;;;;1.23;0.30;;;15.00;93.90;;;;;;5061078;28;20036;-75
2021/05/24 07:44:54;;;;;;;4.78;0.45;;;15.00;92.90;;;;;;5057647;28;20037;-75
2021/05/24 07:47:20;;;;;;;1.45;0.28;;;15.10;91.70;;;;;;5088134;28;20036;-75
2021/05/24 07:49:46;;;;;;;3.15;0.43;;;15.10;92.30;;;;;;5058910;28;20039;-74
2021/05/24 07:52:12;;;;;;;3.35;0.60;;;15.10;92.20;;;;;;5056460;28;20055;-74
2021/05/24 07:54:38;;;;;;;5.88;0.98;;;15.00;93.00;;;;;;5054106;28;20530;-74
2021/05/24 07:57:03;;;;;;;1.55;0.40;;;15.00;93.40;;;;;;5054869;28;20051;-79
2021/05/24 07:59:29;;;;;;;3.88;0.43;;;15.10;92.10;;;;;;5055668;28;20911;-75
2021/05/24 08:01:55;;;;;;;5.50;0.43;;;15.00;91.90;;;;;;5067115;28;20064;-78
2021/05/24 08:04:20;;;;;;;1.90;0.47;;;14.90;91.90;;;;;;5065150;28;20756;-74
2021/05/24 08:06:46;;;;;;;4.03;0.40;;;14.90;92.40;;;;;;5061538;28;20044;-75
2021/05/24 08:09:12;;;;;;;3.53;0.40;;;14.90;93.00;;;;;;5063455;28;20052;-74
2021/05/24 08:11:38;;;;;;;2.35;0.50;;;14.90;93.10;;;;;;5067575;28;20064;-78
2021/05/24 08:14:04;;;;;;;1.73;0.30;;;14.80;92.90;;;;;;5096451;28;20033;-78
2021/05/24 08:16:30;;;;;;;2.70;0.75;;;14.80;93.70;;;;;;5065113;28;20482;-79
2021/05/24 08:18:56;;;;;;;4.25;0.43;;;14.80;94.10;;;;;;5066445;28;20041;-79
2021/05/24 08:21:22;;;;;;;6.00;0.90;;;14.70;95.20;;;;;;5066932;28;20123;-78
2021/05/24 08:23:47;;;;;;;3.97;0.50;;;14.60;96.10;;;;;;5070515;28;20119;-76
2021/05/24 08:26:13;;;;;;;1.90;0.50;;;14.60;96.70;;;;;;5068050;28;20577;-76
2021/05/24 08:28:39;;;;;;;3.53;0.45;;;14.50;97.20;;;;;;5064406;28;20791;-75
2021/05/24 08:31:06;;;;;;;5.20;0.63;;;14.40;97.60;;;;;;5063448;28;20052;-75
2021/05/24 08:33:32;;;;;;;1.13;0.50;;;14.30;97.90;;;;;;5069479;28;20433;-75
2021/05/24 08:35:58;;;;;;;9.85;1.60;;;14.10;98.30;;;;;;5065215;28;20033;-74
2021/05/24 08:38:23;;;;;;;4.95;0.80;;;13.80;99.00;;;;;;5066492;28;20135;-74
2021/05/24 08:40:50;;;;;;;3.05;0.63;;;13.70;99.20;;;;;;5064674;28;20044;-77
2021/05/24 08:43:16;;;;;;;1.65;0.52;;;13.60;99.60;;;;;;5064931;28;20036;-74
2021/05/24 08:45:43;;;;;;;1.48;0.40;;;13.50;99.70;;;;;;5064802;28;20040;-74
2021/05/24 08:48:11;;;;;;;2.50;0.70;;;13.60;99.90;;;;;;5065154;28;20040;-75
2021/05/24 08:50:39;;;;;;;1.25;0.63;;;13.60;99.90;;;;;;5067918;28;20045;-75
2021/05/24 08:53:06;;;;;;;1.77;0.50;;;13.60;99.90;;;;;;5067125;28;20049;-75
2021/05/24 08:55:33;;;;;;;5.60;0.50;;;13.70;99.90;;;;;;5061000;28;20033;-75
2021/05/24 08:57:59;;;;;;;2.72;0.40;;;13.80;99.70;;;;;;5064601;28;20040;-75
2021/05/24 09:00:25;;;;;;;2.95;0.93;;;13.80;99.90;;;;;;5061936;28;20044;-75
2021/05/24 09:02:54;;;;;;;3.38;0.70;;;13.80;99.80;;;;;;5063982;28;20475;-77
2021/05/24 09:05:21;;;;;;;2.42;0.43;;;13.80;99.50;;;;;;5063331;28;20044;-75
2021/05/24 09:07:52;;;;;;;3.15;0.60;;;13.80;99.50;;;;;;5057741;28;20047;-75
2021/05/24 09:10:20;;;;;;;2.58;0.40;;;13.70;99.40;;;;;;5062771;28;20032;-74
2021/05/24 09:12:46;;;;;;;3.13;0.63;;;13.60;99.70;;;;;;5065781;28;20036;-76
2021/05/24 09:15:15;;;;;;;4.53;0.60;;;13.60;99.80;;;;;;5092462;27;20158;-75
2021/05/24 09:17:52;;;;;;;2.55;0.40;;;13.60;99.90;;;;;;5067535;28;20041;-74
2021/05/24 09:20:24;;;;;;;1.55;0.50;;;13.50;99.90;;;;;;5069021;28;20037;-75
2021/05/24 09:23:25;;;;;;;2.55;0.80;;;13.40;99.90;;;;;;5067441;28;20041;-75
2021/05/24 09:26:03;;;;;;;1.80;0.80;;;13.40;99.90;;;;;;5064686;28;20047;-75
2021/05/24 09:28:40;;;;;;;1.88;0.40;;;13.30;99.70;;;;;;5062491;28;20159;-75
2021/05/24 09:31:12;;;;;;;2.08;0.45;;;13.20;99.60;;;;;;5064757;28;20488;-74
2021/05/24 09:33:43;;;;;;;4.05;0.50;;;13.10;99.80;;;;;;5063588;28;20043;-74
2021/05/24 09:36:10;;;;;;;1.15;0.40;;;13.00;99.90;;;;;;5063225;28;20510;-74
2021/05/24 09:38:43;;;;;;;2.25;0.50;;;12.90;99.90;;;;;;5064267;28;20463;-74
2021/05/24 09:41:17;;;;;;;1.15;0.50;;;12.80;99.90;;;;;;5067995;28;20060;-74
2021/05/24 09:43:52;;;;;;;3.03;0.50;;;12.80;99.90;;;;;;5062099;28;20053;-74
2021/05/24 09:46:23;;;;;;;2.08;0.77;;;12.70;99.90;;;;;;5061755;28;20090;-74
2021/05/24 09:48:54;;;;;;;3.15;0.43;;;12.80;99.90;;;;;;5062139;28;20045;-74
2021/05/24 09:51:22;;;;;;;2.60;0.50;;;12.70;99.90;;;;;;5068018;28;20037;-74
2021/05/24 09:53:58;;;;;;;1.40;0.60;;;12.70;99.90;;;;;;5061457;28;20059;-74
2021/05/24 09:56:25;;;;;;;3.22;0.70;;;12.60;99.90;;;;;;5058416;28;20110;-74
2021/05/24 09:59:15;;;;;;;1.35;0.70;;;12.60;99.90;;;;;;5059928;28;20088;-74
2021/05/24 10:01:48;;;;;;;2.72;0.70;;;12.60;99.90;;;;;;5062661;28;20049;-74
2021/05/24 10:04:23;;;;;;;1.92;0.50;;;12.60;99.90;;;;;;5063770;28;20051;-74
2021/05/24 10:06:50;;;;;;;4.28;0.50;;;12.60;99.90;;;;;;5063289;28;20045;-74
2021/05/24 10:09:20;;;;;;;5.22;0.70;;;12.70;99.90;;;;;;5061615;28;20398;-73
2021/05/24 10:11:51;;;;;;;2.53;0.60;;;12.80;99.90;;;;;;5057496;28;20047;-74
2021/05/24 10:14:21;;;;;;;1.60;0.50;;;12.90;99.90;;;;;;5065998;28;20037;-74
2021/05/24 10:16:49;;;;;;;1.73;0.70;;;12.90;99.90;;;;;;5061640;28;20037;-75
2021/05/24 10:19:17;;;;;;;2.25;0.70;;;13.10;99.90;;;;;;5061748;28;20041;-75
2021/05/24 10:21:44;;;;;;;1.98;0.65;;;13.20;99.90;;;;;;5060256;28;20055;-75
2021/05/24 10:24:11;;;;;;;1.00;0.60;;;13.30;99.90;;;;;;5060506;28;20041;-75
2021/05/24 10:26:38;;;;;;;1.67;0.57;;;13.30;99.90;;;;;;5063762;28;20190;-75
2021/05/24 10:29:05;;;;;;;2.53;0.82;;;13.40;99.90;;;;;;5064113;28;20044;-75
2021/05/24 10:31:32;;;;;;;2.13;0.70;;;13.40;99.90;;;;;;5066480;28;20452;-74
2021/05/24 10:34:35;;;;;;;1.30;0.60;;;13.60;99.90;;;;;;5061241;28;20040;-74
2021/05/24 10:37:06;;;;;;;2.95;0.70;;;13.70;99.90;;;;;;5065706;28;20052;-74
2021/05/24 10:39:53;;;;;;;1.52;0.70;;;13.80;99.90;;;;;;5062939;28;20064;-75
2021/05/24 10:42:40;;;;;;;1.50;0.60;;;13.70;99.90;;;;;;5065488;28;20047;-75
2021/05/24 10:45:19;;;;;;;;;;;14.10;99.90;;;;;;5061883;28;20068;-75
2021/05/24 10:47:58;;;;;;;3.63;0.70;;;14.10;99.90;;;;;;5064771;28;20679;-74
2021/05/24 10:50:25;;;;;;;3.35;1.05;;;14.10;99.90;;;;;;5064067;28;20033;-75
2021/05/24 10:53:21;;;;;;;2.53;0.98;;;14.10;99.90;;;;;;5064602;28;20047;-75
2021/05/24 10:55:53;;;;;;;3.13;0.65;;;14.10;99.80;;;;;;5063520;28;20174;-75
2021/05/24 10:58:24;;;;;;;1.50;0.70;;;14.10;99.10;;;;;;5066986;28;20778;-75
2021/05/24 11:00:56;;;;;;;2.17;0.75;;;14.00;99.50;;;;;;5062531;28;20491;-75
2021/05/24 11:03:22;;;;;;;2.25;1.00;;;14.20;99.90;;;;;;5063389;28;20165;-75
2021/05/24 11:06:13;;;;;;;2.10;1.05;;;14.20;98.60;;;;;;5062749;28;20067;-75
2021/05/24 11:08:41;;;;;;;3.45;0.88;;;14.20;99.20;;;;;;5061668;28;20049;-75
2021/05/24 11:11:24;;;;;;;4.28;0.80;;;14.30;99.10;;;;;;5063812;28;20048;-75
2021/05/24 11:14:04;;;;;;;4.88;0.98;;;14.20;97.80;;;;;;5063269;28;20442;-75
2021/05/24 11:16:33;;;;;;;1.88;1.10;;;14.20;98.60;;;;;;5060272;28;20040;-75
2021/05/24 11:19:10;;;;;;;2.72;0.90;;;14.20;99.80;;;;;;5061545;28;20040;-75
2021/05/24 11:21:37;;;;;;;1.30;0.60;;;14.30;99.50;;;;;;5062049;28;20108;-75
2021/05/24 11:24:33;;;;;;;2.17;0.80;;;14.20;98.90;;;;;;5060476;28;20128;-75
2021/05/24 11:27:16;;;;;;;1.90;0.80;;;14.30;97.90;;;;;;5063728;28;20128;-75
2021/05/24 11:29:47;;;;;;;3.15;0.95;;;14.20;98.40;;;;;;5064179;28;20113;-75
2021/05/24 11:32:30;;;;;;;2.53;0.80;;;14.20;98.40;;;;;;5056055;28;20107;-75
2021/05/24 11:34:57;;;;;;;3.55;0.77;;;14.10;97.90;;;;;;5056719;28;20475;-75
2021/05/24 11:37:42;;;;;;;2.03;0.63;;;14.00;98.30;;;;;;5060425;28;20536;-75
2021/05/24 11:40:16;;;;;;;2.03;0.55;;;14.00;98.50;;;;;;5056876;28;20145;-75
2021/05/24 11:42:42;;;;;;;2.47;0.75;;;14.00;98.50;;;;;;5053756;28;20044;-75
2021/05/24 11:45:17;;;;;;;3.20;0.77;;;14.00;98.80;;;;;;5055048;28;20110;-75
2021/05/24 11:47:42;;;;;;;2.07;0.53;;;14.00;98.80;;;;;;5054408;28;20032;-75
2021/05/24 11:50:09;;;;;;;2.47;0.50;;;14.10;98.60;;;;;;5055199;28;20045;-75
2021/05/24 11:52:37;;;;;;;3.28;1.00;;;14.20;98.00;;;;;;5055760;28;20059;-75
2021/05/24 11:55:05;;;;;;;3.30;1.35;;;14.10;98.60;;;;;;5059093;28;20072;-75
2021/05/24 11:57:35;;;;;;;3.42;0.57;;;14.00;97.70;;;;;;5057729;28;20047;-75
2021/05/24 12:00:01;;;;;;;2.55;0.47;;;13.90;97.70;;;;;;5053908;28;20040;-76
2021/05/24 12:02:28;;;;;;;5.15;0.90;;;13.90;98.00;;;;;;5053827;28;20423;-76
2021/05/24 12:04:53;;;;;;;6.03;0.68;;;14.00;98.50;;;;;;5055330;28;20116;-77
2021/05/24 12:07:22;;;;;;;1.00;0.40;;;14.00;98.10;;;;;;5054565;28;20128;-77
2021/05/24 12:09:55;;;;;;;1.27;0.30;;;14.00;98.40;;;;;;5053368;28;20048;-76
2021/05/24 12:12:35;;;;;;;1.08;0.30;;;14.00;98.90;;;;;;5055092;28;20456;-76
2021/05/24 12:15:04;;;;;;;2.45;0.50;;;14.00;98.20;;;;;;5055235;28;20412;-76
2021/05/24 12:17:33;;;;;;;2.33;0.40;;;13.90;98.30;;;;;;5054492;28;20090;-76
2021/05/24 12:20:00;;;;;;;1.40;0.50;;;13.90;98.80;;;;;;5052812;28;20052;-76
2021/05/24 12:22:29;;;;;;;0.82;0.40;;;14.00;99.40;;;;;;5055234;28;20052;-76
2021/05/24 12:24:57;;;;;;;3.30;0.50;;;14.00;99.40;;;;;;5054591;28;20804;-76
2021/05/24 12:27:27;;;;;;;2.20;0.85;;;14.10;99.80;;;;;;5053607;28;20040;-76
2021/05/24 12:30:16;;;;;;;3.78;0.80;;;14.00;99.40;;;;;;5056751;28;20793;-76
2021/05/24 12:32:47;;;;;;;1.77;0.50;;;14.00;99.30;;;;;;5055530;28;20752;-76
2021/05/24 12:35:18;;;;;;;3.10;0.60;;;13.90;99.50;;;;;;5055362;28;20719;-76
2021/05/24 12:37:50;;;;;;;3.25;0.82;;;13.90;99.90;;;;;;5057847;28;20036;-75
2021/05/24 12:40:17;;;;;;;2.10;0.65;;;14.00;99.90;;;;;;5053965;28;20040;-76
2021/05/24 12:42:44;;;;;;;2.15;1.13;;;13.90;99.90;;;;;;5051460;28;20126;-76
2021/05/24 12:45:13;;;;;;;5.60;0.75;;;13.90;99.90;;;;;;5056543;28;20120;-75
2021/05/24 12:47:39;;;;;;;1.95;0.80;;;13.90;99.90;;;;;;5056097;28;20045;-75
2021/05/24 12:50:14;;;;;;;3.85;1.00;;;13.90;99.90;;;;;;5060640;28;20136;-75
2021/05/24 12:52:40;;;;;;;1.90;0.83;;;13.80;99.90;;;;;;5057266;28;20064;-75